createdAt,value
2018-03-08T00:02:18.049Z,41.10
2018-03-08T00:06:22.766Z,39.30
2018-03-08T00:10:26.297Z,41.10
2018-03-08T00:14:35.108Z,40.57
2018-03-08T00:18:38.915Z,40.60
2018-03-08T00:22:44.810Z,39.03
2018-03-08T00:27:14.066Z,39.13
2018-03-08T00:35:29.204Z,39.57
2018-03-08T00:39:37.999Z,37.40
2018-03-08T00:43:44.683Z,38.97
2018-03-08T00:47:48.318Z,35.77
2018-03-08T00:51:53.433Z,35.53
2018-03-08T00:55:57.067Z,37.80
2018-03-08T01:00:00.522Z,36.47
2018-03-08T01:04:04.581Z,35.90
2018-03-08T01:08:11.069Z,37.57
2018-03-08T01:12:15.771Z,36.47
2018-03-08T01:20:33.601Z,34.40
2018-03-08T01:24:40.205Z,34.97
2018-03-08T01:28:44.545Z,34.77
2018-03-08T01:32:48.117Z,35.63
2018-03-08T01:41:08.562Z,36.37
2018-03-08T01:45:20.402Z,37.17
2018-03-08T01:49:27.312Z,35.83
2018-03-08T01:57:48.434Z,35.23
2018-03-08T02:01:56.150Z,37.73
2018-03-08T02:06:05.083Z,36.77
2018-03-08T02:10:10.521Z,39.57
2018-03-08T02:14:16.333Z,37.17
2018-03-08T02:18:21.371Z,36.70
2018-03-08T02:22:29.673Z,37.47
2018-03-08T02:26:33.307Z,35.07
2018-03-08T02:30:36.765Z,36.97
2018-03-08T02:34:41.135Z,38.53
2018-03-08T02:38:46.348Z,40.53
2018-03-08T02:42:51.787Z,41.20
2018-03-08T02:47:03.900Z,39.47
2018-03-08T02:51:10.335Z,40.73
2018-03-08T02:55:17.608Z,41.67
2018-03-08T02:59:26.293Z,42.37
2018-03-08T03:03:37.746Z,41.83
2018-03-08T03:07:43.904Z,40.30
2018-03-08T03:11:49.287Z,38.63
2018-03-08T03:15:58.727Z,41.03
2018-03-08T03:20:03.635Z,41.73
2018-03-08T03:24:07.820Z,43.03
2018-03-08T03:28:13.162Z,43.37
2018-03-08T03:32:18.176Z,43.13
2018-03-08T03:36:27.931Z,42.87
2018-03-08T03:40:42.918Z,40.83
2018-03-08T03:44:48.865Z,42.87
2018-03-08T03:48:57.012Z,41.93
2018-03-08T03:53:03.907Z,43.33
2018-03-08T03:57:07.446Z,43.67
2018-03-08T04:01:11.510Z,44.13
2018-03-08T04:05:15.762Z,48.60
2018-03-08T04:17:52.554Z,47.43
2018-03-08T04:22:00.325Z,49.87
2018-03-08T04:26:07.574Z,49.50
2018-03-08T04:30:11.177Z,49.53
2018-03-08T04:34:15.661Z,52.23
2018-03-08T04:42:57.199Z,44.97
2018-03-08T04:47:00.515Z,54.93
2018-03-08T04:51:03.834Z,53.67
2018-03-08T04:55:07.149Z,53.53
2018-03-08T04:59:11.222Z,55.13
2018-03-08T05:03:14.559Z,54.40
2018-03-08T05:07:17.875Z,58.17
2018-03-08T05:11:21.947Z,59.20
2018-03-08T05:15:25.272Z,57.17
2018-03-08T05:19:28.595Z,58.53
2018-03-08T05:23:31.930Z,57.80
2018-03-08T05:27:35.230Z,55.93
2018-03-08T05:31:38.550Z,63.13
2018-03-08T05:35:41.858Z,57.60
2018-03-08T05:39:45.159Z,62.57
2018-03-08T05:43:48.478Z,63.40
2018-03-08T05:47:51.791Z,63.67
2018-03-08T05:51:55.129Z,64.30
2018-03-08T05:55:59.201Z,63.60
2018-03-08T06:00:02.581Z,67.43
2018-03-08T06:04:05.900Z,62.73
2018-03-08T06:08:09.202Z,61.63
2018-03-08T06:12:12.538Z,71.70
2018-03-08T06:16:15.838Z,69.57
2018-03-08T06:20:19.172Z,67.23
2018-03-08T06:24:23.239Z,67.10
2018-03-08T06:28:26.567Z,64.53
2018-03-08T06:32:29.893Z,63.33
2018-03-08T06:36:33.974Z,59.57
2018-03-08T06:40:37.298Z,67.03
2018-03-08T06:44:40.598Z,59.63
2018-03-08T06:48:43.921Z,61.03
2018-03-08T06:52:47.996Z,57.73
2018-03-08T06:56:51.310Z,55.30
2018-03-08T07:00:54.627Z,60.20
2018-03-08T07:04:57.950Z,60.10
2018-03-08T07:09:02.046Z,60.73
2018-03-08T07:13:05.354Z,61.07
2018-03-08T07:17:08.678Z,64.33
2018-03-08T07:21:12.741Z,61.33
2018-03-08T07:25:16.076Z,72.30
2018-03-08T07:29:19.379Z,71.83
2018-03-08T07:33:22.704Z,66.30
2018-03-08T07:37:26.782Z,66.00
2018-03-08T07:41:30.107Z,62.47
2018-03-08T07:45:33.411Z,62.83
2018-03-08T07:49:36.726Z,64.67
2018-03-08T07:53:40.055Z,68.27
2018-03-08T07:57:43.363Z,74.90
2018-03-08T08:01:46.678Z,74.07
2018-03-08T08:06:07.451Z,76.47
2018-03-08T08:10:11.543Z,71.30
2018-03-08T08:14:14.870Z,74.27
2018-03-08T08:18:18.960Z,76.23
2018-03-08T08:22:22.277Z,78.10
2018-03-08T08:26:25.603Z,79.20
2018-03-08T08:30:29.672Z,80.50
2018-03-08T08:34:32.988Z,77.77
2018-03-08T08:38:36.310Z,80.07
2018-03-08T08:42:39.616Z,80.03
2018-03-08T08:46:42.996Z,72.20
2018-03-08T08:50:47.035Z,81.63
2018-03-08T08:54:51.555Z,78.37
2018-03-08T08:58:55.012Z,73.90
2018-03-08T09:02:58.346Z,78.87
2018-03-08T09:07:01.642Z,83.37
2018-03-08T09:11:04.964Z,82.77
2018-03-08T09:15:08.262Z,78.30
2018-03-08T09:19:11.587Z,81.17
2018-03-08T09:23:14.904Z,87.10
2018-03-08T09:27:18.976Z,82.93
2018-03-08T09:31:22.298Z,83.37
2018-03-08T09:35:27.763Z,73.97
2018-03-08T09:39:31.075Z,74.57
2018-03-08T09:43:34.407Z,78.87
2018-03-08T09:47:37.710Z,76.33
2018-03-08T09:51:41.035Z,74.60
2018-03-08T09:55:44.339Z,75.43
2018-03-08T09:59:47.656Z,72.63
2018-03-08T10:03:50.969Z,73.57
2018-03-08T10:07:54.283Z,62.03
2018-03-08T10:11:57.579Z,62.50
2018-03-08T10:16:00.911Z,48.80
2018-03-08T10:20:04.978Z,49.73
2018-03-08T10:24:08.295Z,40.33
2018-03-08T10:28:11.618Z,39.23
2018-03-08T10:32:15.019Z,40.77
2018-03-08T10:36:18.352Z,41.03
2018-03-08T10:44:25.742Z,39.63
2018-03-08T10:48:29.050Z,43.80
2018-03-08T10:52:32.358Z,39.77
2018-03-08T10:56:35.666Z,41.17
2018-03-08T11:00:44.368Z,39.70
2018-03-08T11:04:53.123Z,40.50
2018-03-08T11:08:56.430Z,42.47
2018-03-08T11:13:00.507Z,41.10
2018-03-08T11:17:03.834Z,39.93
2018-03-08T11:21:07.129Z,49.07
2018-03-08T11:25:10.442Z,45.17
2018-03-08T11:29:13.755Z,46.73
2018-03-08T11:33:17.078Z,44.23
2018-03-08T11:37:21.139Z,49.03
2018-03-08T11:41:24.447Z,48.33
2018-03-08T11:45:27.758Z,52.37
2018-03-08T11:49:31.051Z,50.07
2018-03-08T11:53:34.358Z,44.20
2018-03-08T11:57:37.670Z,46.60
2018-03-08T12:01:40.978Z,46.07
2018-03-08T12:05:44.294Z,45.57
2018-03-08T12:09:47.619Z,46.07
2018-03-08T12:13:51.676Z,45.93
2018-03-08T12:17:55.044Z,40.60
2018-03-08T12:21:58.307Z,39.70
2018-03-08T12:26:01.624Z,41.40
2018-03-08T12:30:04.933Z,42.40
2018-03-08T12:34:08.251Z,40.90
2018-03-08T12:38:12.334Z,40.97
2018-03-08T12:42:15.642Z,39.47
2018-03-08T12:46:18.971Z,38.50
2018-03-08T12:50:23.026Z,37.63
2018-03-08T12:54:26.335Z,37.77
2018-03-08T12:58:29.647Z,37.00
2018-03-08T13:02:32.956Z,33.13
2018-03-08T13:06:36.271Z,34.37
2018-03-08T13:10:39.588Z,32.83
2018-03-08T13:14:42.909Z,30.43
2018-03-08T13:18:46.987Z,32.07
2018-03-08T13:22:50.295Z,30.87
2018-03-08T13:26:53.618Z,32.80
2018-03-08T13:30:56.910Z,28.73
2018-03-08T13:35:00.219Z,30.27
2018-03-08T13:39:03.531Z,29.47
2018-03-08T13:43:06.846Z,30.33
2018-03-08T13:47:10.926Z,27.47
2018-03-08T13:51:14.225Z,28.93
2018-03-08T13:55:17.529Z,28.07
2018-03-08T13:59:20.838Z,28.03
2018-03-08T14:03:24.156Z,25.37
2018-03-08T14:07:27.485Z,28.80
2018-03-08T14:11:31.546Z,26.80
2018-03-08T14:15:34.865Z,26.43
2018-03-08T14:19:38.179Z,25.83
2018-03-08T14:23:41.474Z,27.07
2018-03-08T14:27:44.799Z,26.33
2018-03-08T14:31:48.119Z,28.60
2018-03-08T14:35:51.410Z,27.43
2018-03-08T14:39:55.483Z,28.67
2018-03-08T14:43:58.794Z,29.30
2018-03-08T14:48:02.107Z,29.93
2018-03-08T14:52:05.404Z,27.73
2018-03-08T14:56:08.714Z,26.93
2018-03-08T15:00:12.081Z,26.37
2018-03-08T15:04:15.330Z,22.77
2018-03-08T15:08:18.647Z,22.23
2018-03-08T15:12:22.722Z,21.83
2018-03-08T15:16:26.019Z,20.70
2018-03-08T15:20:29.327Z,21.03
2018-03-08T15:24:32.639Z,21.03
2018-03-08T15:28:35.946Z,21.27
2018-03-08T15:32:39.239Z,20.87
2018-03-08T15:36:42.551Z,22.20
2018-03-08T15:40:45.864Z,20.83
2018-03-08T15:44:49.195Z,20.43
2018-03-08T15:48:53.246Z,21.17
2018-03-08T15:52:56.898Z,22.77
2018-03-08T15:57:00.193Z,20.83
2018-03-08T16:01:03.520Z,20.27
2018-03-08T16:05:06.831Z,22.20
2018-03-08T16:09:10.923Z,20.90
2018-03-08T16:13:14.243Z,22.00
2018-03-08T16:17:17.560Z,22.37
2018-03-08T16:21:21.642Z,21.77
2018-03-08T16:25:24.995Z,23.67
2018-03-08T16:29:28.330Z,24.13
2018-03-08T16:33:31.653Z,26.60
2018-03-08T16:37:34.979Z,26.13
2018-03-08T16:41:38.280Z,28.70
2018-03-08T16:45:41.594Z,29.50
2018-03-08T16:49:45.667Z,29.53
2018-03-08T16:53:48.958Z,29.57
2018-03-08T16:57:52.286Z,26.47
2018-03-08T17:01:55.583Z,26.67
2018-03-08T17:05:58.907Z,24.00
2018-03-08T17:10:02.203Z,22.03
2018-03-08T17:14:05.524Z,18.77
2018-03-08T17:18:08.838Z,16.80
2018-03-08T17:22:12.156Z,17.37
2018-03-08T17:26:15.463Z,16.93
2018-03-08T17:30:18.796Z,18.37
2018-03-08T17:34:22.152Z,21.47
2018-03-08T17:38:25.423Z,23.70
2018-03-08T17:42:28.761Z,20.70
2018-03-08T17:46:32.843Z,20.10
2018-03-08T17:50:36.154Z,17.53
2018-03-08T17:54:39.462Z,17.47
2018-03-08T17:58:42.783Z,18.30
2018-03-08T18:02:46.871Z,17.13
2018-03-08T18:06:50.171Z,20.30
2018-03-08T18:10:53.498Z,19.37
2018-03-08T18:14:56.826Z,18.60
2018-03-08T18:19:00.136Z,17.87
2018-03-08T18:23:03.461Z,15.70
2018-03-08T18:27:06.798Z,11.53
2018-03-08T18:59:49.202Z,12.33
2018-03-08T19:03:52.515Z,8.47
2018-03-08T19:07:56.590Z,9.20
2018-03-08T19:11:59.895Z,8.87
2018-03-08T19:16:03.216Z,9.23
2018-03-08T19:20:06.515Z,9.53
2018-03-08T19:24:09.871Z,9.00
2018-03-08T19:28:13.212Z,9.97
2018-03-08T19:32:16.530Z,9.30
2018-03-08T19:36:19.847Z,9.77
2018-03-08T19:40:23.951Z,9.83
2018-03-08T19:44:27.283Z,9.37
2018-03-08T19:48:30.629Z,9.73
2018-03-08T19:52:33.942Z,9.67
2018-03-08T19:56:37.271Z,10.13
2018-03-08T20:00:40.619Z,10.50
2018-03-08T20:04:43.926Z,10.47
2018-03-08T20:08:47.255Z,12.00
2018-03-08T20:12:50.597Z,11.70
2018-03-08T20:16:54.692Z,11.43
2018-03-08T20:20:58.039Z,11.83
2018-03-08T20:25:01.364Z,11.53
2018-03-08T20:29:04.704Z,15.10
2018-03-08T20:33:08.017Z,14.23
2018-03-08T20:37:11.348Z,17.23
2018-03-08T20:41:14.659Z,18.27
2018-03-08T20:45:18.011Z,20.43
2018-03-08T20:49:21.323Z,19.60
2018-03-08T20:53:24.638Z,18.97
2018-03-08T20:57:27.948Z,18.97
2018-03-08T21:01:31.281Z,20.43
2018-03-08T21:05:34.583Z,19.33
2018-03-08T21:09:37.927Z,20.40
2018-03-08T21:13:41.259Z,20.33
2018-03-08T21:17:44.595Z,18.77
2018-03-08T21:21:47.928Z,19.17
2018-03-08T21:25:51.259Z,18.97
2018-03-08T21:29:54.554Z,17.47
2018-03-08T21:33:57.880Z,18.73
2018-03-08T21:38:01.212Z,17.63
2018-03-08T21:42:04.511Z,18.57
2018-03-08T21:46:07.839Z,18.23
2018-03-08T21:50:11.160Z,18.37
2018-03-08T21:54:14.500Z,17.07
2018-03-08T21:58:17.807Z,18.03
2018-03-08T22:02:21.138Z,18.57
2018-03-08T22:06:25.267Z,19.07
2018-03-08T22:10:28.581Z,17.23
2018-03-08T22:14:31.912Z,16.27
2018-03-08T22:18:35.237Z,15.43
2018-03-08T22:22:38.563Z,16.97
2018-03-08T22:26:41.876Z,16.03
2018-03-08T22:30:45.201Z,15.93
2018-03-08T22:34:48.520Z,16.27
2018-03-08T22:38:51.852Z,16.27
2018-03-08T22:42:55.180Z,16.07
2018-03-08T22:46:58.527Z,15.60
2018-03-08T22:51:01.842Z,14.87
2018-03-08T22:55:05.162Z,14.00
2018-03-08T22:59:08.515Z,14.20
2018-03-08T23:03:17.672Z,14.27
2018-03-08T23:07:21.092Z,12.30
2018-03-08T23:11:24.798Z,13.40
2018-03-08T23:19:48.746Z,9.80
2018-03-08T23:37:56.519Z,16.07
2018-03-08T23:41:59.967Z,15.20
2018-03-08T23:46:03.663Z,12.03
2018-03-08T23:50:07.064Z,11.27
2018-03-08T23:54:10.410Z,11.97
2018-03-08T23:58:13.793Z,11.40
